Ponce Inlet, Florida
Current Conditions -  °F | °C
As of 11:50 AM on Friday 31 Oct 2014 (Local Time) from KEVB Reporting Station
Clear Clear  
Wind Chill: 75°   Ceiling: Unl
Heat Index: 75°   Visibility: 10mi
Dew Point: 59°   Wind: 6mph
Humidity: 57%   Direction: 300°WNW
Pressure: 29.86"   Gusts: NA
Location:  29.1091°N, 80.9979°W
Report Text: KEVB 311550Z 30005KT 10SM SKC 24/15 A2986
Loading
Personal Weather Stations






























Interactive Weather Map
Tropical Storm Tracking
New forecast layout! Learn more

10-Day Weather Forecast

Advertisements
Track Severe Weather on mobile